• Join FlightAware (Why Join?)
  • Login
  • US Flag 
09:51AM EDT


 

Airport Tracker/Info


-or-


 

Live Flight TrackerFlight Track Log ✈ N885FT ✈ 10-May-2014 ✈ KRSW - KMLB

Flight Track Log - Related Links

Times and Time Zones

All times are in EDT time to prevent confusion due to time zone crossing. See the N885FT flight status page for this flight to view local times or setup timezone preferences in your user account.

Time Position Orientation Groundspeed Altitude Reporting Facility
EDT Latitude Longitude Course Direction KTS MPH feet Rate Location/Type
10:20PM 26.5628 -81.8325 327° Northwest 122 140 2,700  Level Miami Center
10:21PM 26.5925 -81.8533 328° Northwest 123 142 3,300 600 Climbing Miami Center
10:22PM 26.6236 -81.8789 324° Northwest 127 146 4,000 300 Climbing Miami Center
10:23PM 26.7276 -81.8978 323° Northwest  Level FlightAware Approximate
10:23PM 26.6586 -81.9064 325° Northwest 154 177 4,000  Level Miami Center
10:24PM 26.7584 -81.9234 323° Northwest  Level FlightAware Approximate
10:24PM 26.6944 -81.9397 320° Northwest 167 192 4,000  Level Miami Center
10:25PM 26.7300 -81.9728 320° Northwest 167 192 3,900  Descending Miami Center
10:26PM 26.7669 -82.0014 325° Northwest 165 190 4,000  Climbing Miami Center
10:27PM 26.8067 -82.0350 323° Northwest 166 191 4,000  Level Miami Center
10:28PM 26.8428 -82.0661 322° Northwest 166 191 4,000  Level Miami Center
10:29PM 26.8811 -82.0939 327° Northwest 166 191 4,000  Level Miami Center
10:30PM 26.9192 -82.1300 320° Northwest 167 192 4,000 -60 Level Miami Center
10:31PM 26.9550 -82.1625 321° Northwest 167 192 3,900 -60 Descending Miami Center
10:32PM 26.9906 -82.1947 321° Northwest 167 192 3,900 -60 Level Miami Center
10:33PM 27.0217 -82.2222 322° Northwest 167 192 3,800  Descending Miami Center
10:34PM 27.0639 -82.2614 320° Northwest 166 191 3,900  Climbing Miami Center
10:35PM 27.0978 -82.2969 317° Northwest 166 191 3,900  Level Miami Center
10:36PM 27.1336 -82.3281 322° Northwest 166 191 3,900  Level Miami Center
10:37PM 27.1706 -82.3592 323° Northwest 166 191 4,000  Climbing Miami Center
10:38PM 27.2067 -82.3883 324° Northwest 165 190 4,000  Level Miami Center
10:39PM 27.2333 -82.4167 317° Northwest 162 186 4,000 60 Level Tampa TRACON
10:40PM 27.2667 -82.4500 318° Northwest 162 186 4,100  Climbing Tampa TRACON
10:41PM 27.2833 -82.4833 299° West 166 191 4,000 -60 Descending Tampa TRACON
10:41PM 27.3000 -82.5167 299° West 159 183 4,000 -60 Level Tampa TRACON
10:42PM 27.3333 -82.5667 307° West 165 190 3,900 -300 Descending Tampa TRACON
10:43PM 27.3667 -82.6167 307° West 174 200 3,500 -480 Descending Tampa TRACON
10:44PM 27.3731 -82.6267 306° West 167 192 3,200 -540 Descending Miami Center
10:45PM 27.4069 -82.6669 313° West 172 198 2,700 -360 Descending Miami Center
10:46PM 27.4417 -82.7047 316° Northwest 172 198 2,500 -120 Descending Miami Center
10:47PM 27.4767 -82.7408 318° Northwest 172 198 2,500 -180 Level Miami Center
10:48PM 27.5200 -82.7319 10° North 179 206 2,200 -300 Descending Miami Center
10:49PM 27.5119 -82.6900 102° East 165 190 2,000 -180 Descending Miami Center
10:50PM 27.4850 -82.6578 133° Southeast 152 175 1,900 -240 Descending Miami Center
10:51PM 27.4617 -82.6314 135° Southeast 137 158 1,600 -480 Descending Miami Center
10:52PM 27.4389 -82.6058 135° Southeast 125 144 1,000 -660 Descending Miami Center
10:53PM 27.4139 -82.5767 134° Southeast 116 133 300 1,500 Descending Miami Center
10:54PM 27.3983 -82.5581 133° Southeast 109 125 4,000 60 Climbing Miami Center
10:55PM 27.3833 -82.5500 155° Southeast 91 105 400 -1,620 Descending Tampa TRACON
10:56PM 27.4000 -82.5167 61° Northeast 100 115 1,500 960 Climbing Tampa TRACON
10:57PM 27.4167 -82.4833 61° Northeast 119 137 2,500 900 Climbing Tampa TRACON
10:58PM 27.4333 -82.4667 42° Northeast 118 136 3,400 840 Climbing Tampa TRACON
10:59PM 27.4500 -82.4500 42° Northeast 110 127 4,200 780 Climbing Tampa TRACON
11:00PM 27.4667 -82.4167 61° Northeast 108 124 4,900 300 Climbing Tampa TRACON
11:01PM 27.4839 -82.3689 68° East 140 161 4,900  Level Miami Center
11:02PM 27.4992 -82.3236 69° East 150 173 5,000  Climbing Miami Center
11:03PM 27.5128 -82.2794 71° East 150 173 5,000  Level Miami Center
11:04PM 27.5281 -82.2342 69° East 153 176 5,000  Level Miami Center
11:05PM 27.5472 -82.1908 63° Northeast 153 176 5,100  Climbing Miami Center
11:06PM 27.5653 -82.1461 66° East 157 181 5,000 -60 Descending Miami Center
11:07PM 27.5819 -82.1014 67° East 156 180 5,000  Level Miami Center
11:08PM 27.6003 -82.0575 65° Northeast 155 178 5,000  Level Miami Center
11:09PM 27.6156 -82.0131 69° East 153 176 5,100  Climbing Miami Center
11:10PM 27.6331 -81.9589 70° East 154 177 5,000 -60 Descending Miami Center
11:11PM 27.6506 -81.9158 65° Northeast 154 177 5,000  Level Miami Center
11:12PM 27.6658 -81.8714 69° East 154 177 5,000 -60 Level Miami Center
11:13PM 27.6817 -81.8256 69° East 156 180 4,900 -60 Descending Miami Center
11:14PM 27.6969 -81.7800 69° East 156 180 4,900  Level Miami Center
11:15PM 27.7133 -81.7350 68° East 156 180 5,000  Climbing Miami Center
11:16PM 27.7306 -81.6889 67° East 157 181 5,000  Level Miami Center
11:17PM 27.7481 -81.6431 67° East 159 183 5,000  Level Miami Center
11:18PM 27.7647 -81.5961 68° East 160 184 5,000  Level Miami Center
11:19PM 27.7842 -81.5500 65° Northeast 160 184 5,000  Level Miami Center
11:20PM 27.7992 -81.5056 69° East 155 178 5,000  Level Miami Center
11:21PM 27.8119 -81.4658 70° East 136 157 5,000  Level Miami Center
11:22PM 27.8272 -81.4281 65° Northeast 132 152 5,000  Level Miami Center
11:23PM 27.8419 -81.3883 67° East 136 157 5,000  Level Miami Center
11:24PM 27.8558 -81.3472 69° East 137 158 5,000  Level Miami Center
11:25PM 27.8697 -81.3061 69° East 139 160 5,000  Level Miami Center
11:26PM 27.8839 -81.2656 68° East 139 160 5,000  Level Miami Center
11:27PM 27.8972 -81.2250 70° East 139 160 5,000 -60 Level Miami Center
11:28PM 27.9128 -81.1761 70° East 139 160 4,900 -60 Descending Miami Center
11:29PM 27.9333 -81.1333 61° Northeast 135 155 4,900  Level Orlando TRACON
11:30PM 27.9500 -81.1000 60° Northeast 135 155 5,000 -60 Climbing Orlando TRACON
11:31PM 27.9675 -81.0644 61° Northeast 136 157 4,800 -360 Descending Miami Center
11:32PM 27.9911 -81.0306 52° Northeast 141 162 4,300 -480 Descending Miami Center
11:33PM 28.0181 -80.9956 49° Northeast 141 162 3,900 -420 Descending Miami Center
11:34PM 28.0431 -80.9631 49° Northeast 141 162 3,500 -420 Descending Miami Center
11:35PM 28.0717 -80.9292 46° Northeast 141 162 3,100 -420 Descending Miami Center
11:36PM 28.0919 -80.8931 58° Northeast 142 163 2,700 -300 Descending Miami Center
11:37PM 28.0919 -80.8497 90° East 133 153 2,500 -240 Descending Miami Center
11:38PM 28.0950 -80.8100 85° East 129 148 2,300 -360 Descending Miami Center
11:39PM 28.1000 -80.7667 83° East 132 152 1,800 -660 Descending Orlando TRACON
11:40PM 28.1000 -80.7333 90° East 101 116 1,100 -540 Descending Orlando TRACON
11:41PM 28.1000 -80.7000 90° East 90 104 800 -360 Descending Orlando TRACON
11:42PM 28.1000 -80.6833 90° East 89 102 400 -480 Descending Orlando TRACON
11:44PM 28.1028 -80.6453 66° East  Level Estimated
11:51PM 28.1028 -80.6453 66° East  Level Estimated
11:52PM 28.1028 -80.6453 105° East  Level Estimated
11:53PM 28.1028 -80.6453 66° East  Level Estimated